sensor_id;sensor_type;location;lat;lon;timestamp;P1;P2;P0
65361;PMS5003;51961;54.960;73.462;2022-08-16T00:00:33;2.00;0.00;0.00
65361;PMS5003;51961;54.960;73.462;2022-08-16T00:03:36;4.00;4.00;0.00
65361;PMS5003;51961;54.960;73.462;2022-08-16T00:06:38;2.00;2.00;0.00
65361;PMS5003;51961;54.960;73.462;2022-08-16T00:09:40;2.00;2.00;0.00
65361;PMS5003;51961;54.960;73.462;2022-08-16T00:12:43;1.25;1.00;0.00
65361;PMS5003;51961;54.960;73.462;2022-08-16T00:15:47;1.75;1.00;0.00
65361;PMS5003;51961;54.960;73.462;2022-08-16T00:18:49;0.00;0.00;0.00
65361;PMS5003;51961;54.960;73.462;2022-08-16T00:21:55;0.00;0.00;0.00
65361;PMS5003;51961;54.960;73.462;2022-08-16T00:24:57;1.00;0.00;0.00
65361;PMS5003;51961;54.960;73.462;2022-08-16T00:27:59;1.33;0.00;0.00
65361;PMS5003;51961;54.960;73.462;2022-08-16T00:31:02;2.00;1.00;0.00
65361;PMS5003;51961;54.960;73.462;2022-08-16T00:34:05;2.00;0.00;0.00
65361;PMS5003;51961;54.960;73.462;2022-08-16T00:37:23;1.00;0.00;0.00
65361;PMS5003;51961;54.960;73.462;2022-08-16T00:40:46;2.00;0.00;0.00
65361;PMS5003;51961;54.960;73.462;2022-08-16T00:43:49;2.00;1.67;0.00
65361;PMS5003;51961;54.960;73.462;2022-08-16T00:46:58;0.50;0.00;0.00
65361;PMS5003;51961;54.960;73.462;2022-08-16T00:50:02;1.00;0.00;0.00
65361;PMS5003;51961;54.960;73.462;2022-08-16T00:53:05;0.33;0.00;0.00
65361;PMS5003;51961;54.960;73.462;2022-08-16T00:56:09;3.00;0.00;0.00
65361;PMS5003;51961;54.960;73.462;2022-08-16T00:59:20;2.00;1.00;0.00
65361;PMS5003;51961;54.960;73.462;2022-08-16T01:02:22;0.00;0.00;0.00
65361;PMS5003;51961;54.960;73.462;2022-08-16T01:05:26;1.00;0.00;0.00
65361;PMS5003;51961;54.960;73.462;2022-08-16T01:08:30;2.00;1.00;0.00
65361;PMS5003;51961;54.960;73.462;2022-08-16T01:11:33;1.00;1.00;0.00
65361;PMS5003;51961;54.960;73.462;2022-08-16T01:14:43;1.25;1.00;0.00
65361;PMS5003;51961;54.960;73.462;2022-08-16T01:17:47;4.00;3.00;0.00
65361;PMS5003;51961;54.960;73.462;2022-08-16T01:21:10;1.00;0.75;0.00
65361;PMS5003;51961;54.960;73.462;2022-08-16T01:27:45;2.00;0.00;0.00
65361;PMS5003;51961;54.960;73.462;2022-08-16T01:30:45;6.50;4.25;0.00
65361;PMS5003;51961;54.960;73.462;2022-08-16T01:33:48;4.00;3.75;1.00
65361;PMS5003;51961;54.960;73.462;2022-08-16T01:37:03;6.50;6.50;1.00
65361;PMS5003;51961;54.960;73.462;2022-08-16T01:40:08;3.75;3.75;1.00
65361;PMS5003;51961;54.960;73.462;2022-08-16T01:43:11;6.00;4.75;0.50
65361;PMS5003;51961;54.960;73.462;2022-08-16T01:49:29;1.00;0.00;0.00
65361;PMS5003;51961;54.960;73.462;2022-08-16T01:52:33;2.00;1.00;0.00
65361;PMS5003;51961;54.960;73.462;2022-08-16T01:55:38;2.00;0.50;0.00
65361;PMS5003;51961;54.960;73.462;2022-08-16T01:58:42;6.33;5.67;0.00
65361;PMS5003;51961;54.960;73.462;2022-08-16T02:01:50;3.00;2.00;0.00
65361;PMS5003;51961;54.960;73.462;2022-08-16T02:04:53;3.00;3.00;0.00
65361;PMS5003;51961;54.960;73.462;2022-08-16T02:07:55;5.00;4.00;1.00
65361;PMS5003;51961;54.960;73.462;2022-08-16T02:10:59;2.00;2.00;0.00
65361;PMS5003;51961;54.960;73.462;2022-08-16T02:14:01;3.00;1.00;0.00
65361;PMS5003;51961;54.960;73.462;2022-08-16T02:17:04;4.00;4.00;0.00
65361;PMS5003;51961;54.960;73.462;2022-08-16T02:20:08;2.50;1.00;0.00
65361;PMS5003;51961;54.960;73.462;2022-08-16T02:23:10;3.50;0.50;0.00
65361;PMS5003;51961;54.960;73.462;2022-08-16T02:26:13;2.00;1.00;0.00
65361;PMS5003;51961;54.960;73.462;2022-08-16T02:29:17;3.00;2.75;0.00
65361;PMS5003;51961;54.960;73.462;2022-08-16T02:32:20;3.00;2.00;0.00
65361;PMS5003;51961;54.960;73.462;2022-08-16T02:35:22;1.00;0.00;0.00
65361;PMS5003;51961;54.960;73.462;2022-08-16T02:38:34;1.00;1.00;0.00
65361;PMS5003;51961;54.960;73.462;2022-08-16T02:41:36;1.00;1.00;0.00
65361;PMS5003;51961;54.960;73.462;2022-08-16T02:44:49;1.00;1.00;0.00
65361;PMS5003;51961;54.960;73.462;2022-08-16T02:47:52;2.50;1.25;0.00
65361;PMS5003;51961;54.960;73.462;2022-08-16T02:50:55;2.50;1.00;0.00
65361;PMS5003;51961;54.960;73.462;2022-08-16T02:53:59;3.00;2.00;0.00
65361;PMS5003;51961;54.960;73.462;2022-08-16T02:57:02;3.75;2.00;0.00
65361;PMS5003;51961;54.960;73.462;2022-08-16T03:00:06;3.00;2.00;0.00
65361;PMS5003;51961;54.960;73.462;2022-08-16T03:03:24;2.00;1.00;0.00
65361;PMS5003;51961;54.960;73.462;2022-08-16T03:06:27;1.33;0.00;0.00
65361;PMS5003;51961;54.960;73.462;2022-08-16T03:09:35;3.67;3.00;0.00
65361;PMS5003;51961;54.960;73.462;2022-08-16T03:12:37;5.67;4.00;1.00
65361;PMS5003;51961;54.960;73.462;2022-08-16T03:15:40;1.00;1.00;0.00
65361;PMS5003;51961;54.960;73.462;2022-08-16T03:18:47;1.00;1.00;0.00
65361;PMS5003;51961;54.960;73.462;2022-08-16T03:21:50;0.00;0.00;0.00
65361;PMS5003;51961;54.960;73.462;2022-08-16T03:24:53;0.00;0.00;0.00
65361;PMS5003;51961;54.960;73.462;2022-08-16T03:28:00;0.00;0.00;0.00
65361;PMS5003;51961;54.960;73.462;2022-08-16T03:31:03;0.00;0.00;0.00
65361;PMS5003;51961;54.960;73.462;2022-08-16T03:34:05;0.67;0.00;0.00
65361;PMS5003;51961;54.960;73.462;2022-08-16T03:37:07;1.00;0.00;0.00
65361;PMS5003;51961;54.960;73.462;2022-08-16T03:40:13;2.67;2.00;0.00
65361;PMS5003;51961;54.960;73.462;2022-08-16T03:43:16;3.00;3.00;0.00
65361;PMS5003;51961;54.960;73.462;2022-08-16T03:46:27;0.00;0.00;0.00
65361;PMS5003;51961;54.960;73.462;2022-08-16T03:49:32;1.50;1.00;0.00
65361;PMS5003;51961;54.960;73.462;2022-08-16T03:52:36;3.00;1.00;0.00
65361;PMS5003;51961;54.960;73.462;2022-08-16T03:55:44;0.33;0.33;0.00
65361;PMS5003;51961;54.960;73.462;2022-08-16T03:58:47;0.00;0.00;0.00
65361;PMS5003;51961;54.960;73.462;2022-08-16T04:01:51;0.00;0.00;0.00
65361;PMS5003;51961;54.960;73.462;2022-08-16T04:04:53;1.00;0.00;0.00
65361;PMS5003;51961;54.960;73.462;2022-08-16T04:07:56;1.00;0.00;0.00
65361;PMS5003;51961;54.960;73.462;2022-08-16T04:10:59;0.00;0.00;0.00
65361;PMS5003;51961;54.960;73.462;2022-08-16T04:14:04;0.00;0.00;0.00
65361;PMS5003;51961;54.960;73.462;2022-08-16T04:17:10;3.25;2.25;0.00
65361;PMS5003;51961;54.960;73.462;2022-08-16T04:20:13;3.33;3.33;0.00
65361;PMS5003;51961;54.960;73.462;2022-08-16T04:23:17;1.00;1.00;0.00
65361;PMS5003;51961;54.960;73.462;2022-08-16T04:26:31;1.00;1.00;0.00
65361;PMS5003;51961;54.960;73.462;2022-08-16T04:29:33;1.00;1.00;0.00
65361;PMS5003;51961;54.960;73.462;2022-08-16T04:32:35;0.00;0.00;0.00
65361;PMS5003;51961;54.960;73.462;2022-08-16T04:35:41;3.67;2.00;0.00
65361;PMS5003;51961;54.960;73.462;2022-08-16T04:38:48;1.00;0.00;0.00
65361;PMS5003;51961;54.960;73.462;2022-08-16T04:41:57;0.00;0.00;0.00
65361;PMS5003;51961;54.960;73.462;2022-08-16T04:45:00;1.00;0.00;0.00
65361;PMS5003;51961;54.960;73.462;2022-08-16T04:48:14;0.00;0.00;0.00
65361;PMS5003;51961;54.960;73.462;2022-08-16T04:51:37;0.00;0.00;0.00
65361;PMS5003;51961;54.960;73.462;2022-08-16T04:54:41;2.75;0.75;0.00
65361;PMS5003;51961;54.960;73.462;2022-08-16T04:57:44;1.00;0.33;0.00
65361;PMS5003;51961;54.960;73.462;2022-08-16T05:00:46;1.00;1.00;0.00
65361;PMS5003;51961;54.960;73.462;2022-08-16T05:03:56;0.00;0.00;0.00
65361;PMS5003;51961;54.960;73.462;2022-08-16T05:06:59;0.00;0.00;0.00
65361;PMS5003;51961;54.960;73.462;2022-08-16T05:10:28;0.00;0.00;0.00
65361;PMS5003;51961;54.960;73.462;2022-08-16T05:13:30;0.00;0.00;0.00
65361;PMS5003;51961;54.960;73.462;2022-08-16T05:16:40;0.00;0.00;0.00
65361;PMS5003;51961;54.960;73.462;2022-08-16T05:19:46;0.00;0.00;0.00
65361;PMS5003;51961;54.960;73.462;2022-08-16T05:23:02;2.00;0.00;0.00
65361;PMS5003;51961;54.960;73.462;2022-08-16T05:26:05;0.00;0.00;0.00
65361;PMS5003;51961;54.960;73.462;2022-08-16T05:29:07;2.00;0.00;0.00
65361;PMS5003;51961;54.960;73.462;2022-08-16T05:32:12;2.00;1.00;0.00
65361;PMS5003;51961;54.960;73.462;2022-08-16T05:35:25;4.00;3.00;0.00
65361;PMS5003;51961;54.960;73.462;2022-08-16T05:38:53;1.75;0.00;0.00
65361;PMS5003;51961;54.960;73.462;2022-08-16T05:41:55;0.00;0.00;0.00
65361;PMS5003;51961;54.960;73.462;2022-08-16T05:44:57;0.00;0.00;0.00
65361;PMS5003;51961;54.960;73.462;2022-08-16T05:48:15;0.00;0.00;0.00
65361;PMS5003;51961;54.960;73.462;2022-08-16T05:51:34;4.00;3.00;0.00
65361;PMS5003;51961;54.960;73.462;2022-08-16T05:54:36;2.00;2.00;0.00
65361;PMS5003;51961;54.960;73.462;2022-08-16T05:57:47;3.00;3.00;0.00
65361;PMS5003;51961;54.960;73.462;2022-08-16T06:00:50;0.00;0.00;0.00
65361;PMS5003;51961;54.960;73.462;2022-08-16T06:03:53;0.00;0.00;0.00
65361;PMS5003;51961;54.960;73.462;2022-08-16T06:07:06;0.00;0.00;0.00
65361;PMS5003;51961;54.960;73.462;2022-08-16T06:10:17;0.50;0.00;0.00
65361;PMS5003;51961;54.960;73.462;2022-08-16T06:13:20;0.00;0.00;0.00
65361;PMS5003;51961;54.960;73.462;2022-08-16T06:16:22;0.00;0.00;0.00
65361;PMS5003;51961;54.960;73.462;2022-08-16T06:19:28;0.00;0.00;0.00
65361;PMS5003;51961;54.960;73.462;2022-08-16T06:22:42;0.00;0.00;0.00
65361;PMS5003;51961;54.960;73.462;2022-08-16T06:25:46;1.67;0.00;0.00
65361;PMS5003;51961;54.960;73.462;2022-08-16T06:28:49;1.00;0.00;0.00
65361;PMS5003;51961;54.960;73.462;2022-08-16T06:31:58;0.00;0.00;0.00
65361;PMS5003;51961;54.960;73.462;2022-08-16T06:35:02;0.33;0.33;0.00
65361;PMS5003;51961;54.960;73.462;2022-08-16T06:38:11;0.00;0.00;0.00
65361;PMS5003;51961;54.960;73.462;2022-08-16T06:41:13;1.00;1.00;0.00
65361;PMS5003;51961;54.960;73.462;2022-08-16T06:44:15;0.00;0.00;0.00
65361;PMS5003;51961;54.960;73.462;2022-08-16T06:47:17;0.00;0.00;0.00
65361;PMS5003;51961;54.960;73.462;2022-08-16T06:50:20;0.00;0.00;0.00
65361;PMS5003;51961;54.960;73.462;2022-08-16T06:53:23;1.00;0.00;0.00
65361;PMS5003;51961;54.960;73.462;2022-08-16T06:56:44;0.00;0.00;0.00
65361;PMS5003;51961;54.960;73.462;2022-08-16T06:59:49;0.00;0.00;0.00
65361;PMS5003;51961;54.960;73.462;2022-08-16T07:02:50;0.00;0.00;0.00
65361;PMS5003;51961;54.960;73.462;2022-08-16T07:05:54;0.00;0.00;0.00
65361;PMS5003;51961;54.960;73.462;2022-08-16T07:09:03;0.00;0.00;0.00
65361;PMS5003;51961;54.960;73.462;2022-08-16T07:12:08;0.00;0.00;0.00
65361;PMS5003;51961;54.960;73.462;2022-08-16T07:15:15;0.00;0.00;0.00
65361;PMS5003;51961;54.960;73.462;2022-08-16T07:18:17;0.00;0.00;0.00
65361;PMS5003;51961;54.960;73.462;2022-08-16T07:21:22;0.00;0.00;0.00
65361;PMS5003;51961;54.960;73.462;2022-08-16T07:24:26;0.00;0.00;0.00
65361;PMS5003;51961;54.960;73.462;2022-08-16T07:27:29;0.50;0.50;0.00
65361;PMS5003;51961;54.960;73.462;2022-08-16T07:30:39;0.50;0.00;0.00
65361;PMS5003;51961;54.960;73.462;2022-08-16T07:33:43;0.00;0.00;0.00
65361;PMS5003;51961;54.960;73.462;2022-08-16T07:36:47;1.00;0.00;0.00
65361;PMS5003;51961;54.960;73.462;2022-08-16T07:39:50;0.00;0.00;0.00
65361;PMS5003;51961;54.960;73.462;2022-08-16T07:42:54;1.75;1.75;0.00
65361;PMS5003;51961;54.960;73.462;2022-08-16T07:46:02;3.25;3.00;0.00
65361;PMS5003;51961;54.960;73.462;2022-08-16T07:49:08;2.67;2.00;0.00
65361;PMS5003;51961;54.960;73.462;2022-08-16T07:52:11;1.00;1.00;0.00
65361;PMS5003;51961;54.960;73.462;2022-08-16T07:55:13;0.00;0.00;0.00
65361;PMS5003;51961;54.960;73.462;2022-08-16T07:58:17;2.75;2.00;0.00
65361;PMS5003;51961;54.960;73.462;2022-08-16T08:01:19;1.00;1.00;0.00
65361;PMS5003;51961;54.960;73.462;2022-08-16T08:04:28;2.50;2.25;0.00
65361;PMS5003;51961;54.960;73.462;2022-08-16T08:07:33;0.67;0.00;0.00
65361;PMS5003;51961;54.960;73.462;2022-08-16T08:10:48;0.00;0.00;0.00
65361;PMS5003;51961;54.960;73.462;2022-08-16T08:14:03;1.00;0.00;0.00
65361;PMS5003;51961;54.960;73.462;2022-08-16T08:17:09;4.00;1.00;0.00
65361;PMS5003;51961;54.960;73.462;2022-08-16T08:20:14;0.00;0.00;0.00
65361;PMS5003;51961;54.960;73.462;2022-08-16T08:23:16;0.00;0.00;0.00
65361;PMS5003;51961;54.960;73.462;2022-08-16T08:26:25;2.00;2.00;0.00
65361;PMS5003;51961;54.960;73.462;2022-08-16T08:29:30;3.00;3.00;0.00
65361;PMS5003;51961;54.960;73.462;2022-08-16T08:32:31;1.75;1.00;0.00
65361;PMS5003;51961;54.960;73.462;2022-08-16T08:35:37;1.00;0.00;0.00
65361;PMS5003;51961;54.960;73.462;2022-08-16T08:38:42;0.00;0.00;0.00
65361;PMS5003;51961;54.960;73.462;2022-08-16T08:41:44;0.25;0.00;0.00
65361;PMS5003;51961;54.960;73.462;2022-08-16T08:44:49;0.00;0.00;0.00
65361;PMS5003;51961;54.960;73.462;2022-08-16T08:47:51;0.00;0.00;0.00
65361;PMS5003;51961;54.960;73.462;2022-08-16T08:51:07;0.00;0.00;0.00
65361;PMS5003;51961;54.960;73.462;2022-08-16T08:54:12;0.25;0.00;0.00
65361;PMS5003;51961;54.960;73.462;2022-08-16T08:57:17;0.00;0.00;0.00
65361;PMS5003;51961;54.960;73.462;2022-08-16T09:00:34;0.00;0.00;0.00
65361;PMS5003;51961;54.960;73.462;2022-08-16T09:03:41;0.00;0.00;0.00
65361;PMS5003;51961;54.960;73.462;2022-08-16T09:06:44;3.25;2.00;0.00
65361;PMS5003;51961;54.960;73.462;2022-08-16T09:09:49;5.00;2.00;0.00
65361;PMS5003;51961;54.960;73.462;2022-08-16T09:12:52;3.00;1.00;0.00
65361;PMS5003;51961;54.960;73.462;2022-08-16T09:16:00;4.75;2.25;0.00
65361;PMS5003;51961;54.960;73.462;2022-08-16T09:19:04;2.00;2.00;0.00
65361;PMS5003;51961;54.960;73.462;2022-08-16T09:22:07;2.00;1.00;0.00
65361;PMS5003;51961;54.960;73.462;2022-08-16T09:25:10;2.50;2.00;0.00
65361;PMS5003;51961;54.960;73.462;2022-08-16T09:28:13;1.00;1.00;0.00
65361;PMS5003;51961;54.960;73.462;2022-08-16T09:31:21;1.33;1.00;0.00
65361;PMS5003;51961;54.960;73.462;2022-08-16T09:34:25;4.00;3.25;0.00
65361;PMS5003;51961;54.960;73.462;2022-08-16T09:37:33;4.00;3.00;1.00
65361;PMS5003;51961;54.960;73.462;2022-08-16T09:40:37;3.00;3.00;0.00
65361;PMS5003;51961;54.960;73.462;2022-08-16T09:43:39;2.00;1.00;0.00
65361;PMS5003;51961;54.960;73.462;2022-08-16T09:46:41;0.33;0.33;0.00
65361;PMS5003;51961;54.960;73.462;2022-08-16T09:49:49;1.00;1.00;0.00
65361;PMS5003;51961;54.960;73.462;2022-08-16T09:53:03;1.00;1.00;0.00
65361;PMS5003;51961;54.960;73.462;2022-08-16T09:59:33;1.00;0.00;0.00
65361;PMS5003;51961;54.960;73.462;2022-08-16T10:02:46;1.00;0.00;0.00
65361;PMS5003;51961;54.960;73.462;2022-08-16T10:05:48;1.00;1.00;0.00
65361;PMS5003;51961;54.960;73.462;2022-08-16T10:08:50;0.75;0.00;0.00
65361;PMS5003;51961;54.960;73.462;2022-08-16T10:11:52;1.00;0.00;0.00
65361;PMS5003;51961;54.960;73.462;2022-08-16T10:15:14;2.00;1.67;0.00
65361;PMS5003;51961;54.960;73.462;2022-08-16T10:18:18;2.00;1.00;0.00
65361;PMS5003;51961;54.960;73.462;2022-08-16T10:21:21;2.00;1.00;0.00
65361;PMS5003;51961;54.960;73.462;2022-08-16T10:24:23;0.00;0.00;0.00
65361;PMS5003;51961;54.960;73.462;2022-08-16T10:27:25;4.00;4.00;0.00
65361;PMS5003;51961;54.960;73.462;2022-08-16T10:30:28;3.00;3.00;0.00
65361;PMS5003;51961;54.960;73.462;2022-08-16T10:33:30;4.25;3.00;0.00
65361;PMS5003;51961;54.960;73.462;2022-08-16T10:36:32;4.00;3.00;0.00
65361;PMS5003;51961;54.960;73.462;2022-08-16T10:39:34;3.00;3.00;0.00
65361;PMS5003;51961;54.960;73.462;2022-08-16T10:42:41;4.75;3.50;0.00
65361;PMS5003;51961;54.960;73.462;2022-08-16T10:45:43;1.67;1.67;0.00
65361;PMS5003;51961;54.960;73.462;2022-08-16T10:48:47;3.75;3.25;0.00
65361;PMS5003;51961;54.960;73.462;2022-08-16T10:51:55;3.00;3.00;1.00
65361;PMS5003;51961;54.960;73.462;2022-08-16T10:54:59;4.00;2.00;0.00
65361;PMS5003;51961;54.960;73.462;2022-08-16T10:58:06;4.00;3.00;1.00
65361;PMS5003;51961;54.960;73.462;2022-08-16T11:01:09;2.00;2.00;1.00
65361;PMS5003;51961;54.960;73.462;2022-08-16T11:04:11;4.00;3.00;0.00
65361;PMS5003;51961;54.960;73.462;2022-08-16T11:07:20;3.00;2.00;0.00
65361;PMS5003;51961;54.960;73.462;2022-08-16T11:10:28;3.00;2.00;0.00
65361;PMS5003;51961;54.960;73.462;2022-08-16T11:13:31;5.00;2.00;0.00
65361;PMS5003;51961;54.960;73.462;2022-08-16T11:16:34;4.50;3.00;0.00
65361;PMS5003;51961;54.960;73.462;2022-08-16T11:19:36;2.67;2.67;0.00
65361;PMS5003;51961;54.960;73.462;2022-08-16T11:22:39;2.00;2.00;0.00
65361;PMS5003;51961;54.960;73.462;2022-08-16T11:25:40;3.00;1.00;0.00
65361;PMS5003;51961;54.960;73.462;2022-08-16T11:28:43;1.00;1.00;0.00
65361;PMS5003;51961;54.960;73.462;2022-08-16T11:31:55;1.00;1.00;0.00
65361;PMS5003;51961;54.960;73.462;2022-08-16T11:34:57;3.00;1.50;0.00
65361;PMS5003;51961;54.960;73.462;2022-08-16T11:38:11;2.00;2.00;0.00
65361;PMS5003;51961;54.960;73.462;2022-08-16T11:41:15;1.75;0.00;0.00
65361;PMS5003;51961;54.960;73.462;2022-08-16T11:44:16;2.00;0.00;0.00
65361;PMS5003;51961;54.960;73.462;2022-08-16T11:47:19;5.00;4.50;0.00
65361;PMS5003;51961;54.960;73.462;2022-08-16T11:50:32;3.00;3.00;0.00
65361;PMS5003;51961;54.960;73.462;2022-08-16T11:53:39;1.00;0.25;0.00
65361;PMS5003;51961;54.960;73.462;2022-08-16T11:56:42;2.75;2.25;0.00
65361;PMS5003;51961;54.960;73.462;2022-08-16T11:59:44;4.00;3.00;0.00
65361;PMS5003;51961;54.960;73.462;2022-08-16T12:02:51;3.00;1.00;0.00
65361;PMS5003;51961;54.960;73.462;2022-08-16T12:05:53;9.33;7.67;1.33
65361;PMS5003;51961;54.960;73.462;2022-08-16T12:08:56;9.75;6.25;2.00
65361;PMS5003;51961;54.960;73.462;2022-08-16T12:12:03;3.00;2.00;0.00
65361;PMS5003;51961;54.960;73.462;2022-08-16T12:15:05;2.00;1.00;0.00
65361;PMS5003;51961;54.960;73.462;2022-08-16T12:18:08;2.00;0.33;0.00
65361;PMS5003;51961;54.960;73.462;2022-08-16T12:21:10;3.00;0.67;0.00
65361;PMS5003;51961;54.960;73.462;2022-08-16T12:24:12;3.00;1.00;0.00
65361;PMS5003;51961;54.960;73.462;2022-08-16T12:27:14;3.50;2.00;0.00
65361;PMS5003;51961;54.960;73.462;2022-08-16T12:30:23;4.00;2.00;0.00
65361;PMS5003;51961;54.960;73.462;2022-08-16T12:33:27;2.00;1.25;0.00
65361;PMS5003;51961;54.960;73.462;2022-08-16T12:36:29;3.00;2.00;0.00
65361;PMS5003;51961;54.960;73.462;2022-08-16T12:39:30;3.00;3.00;0.00
65361;PMS5003;51961;54.960;73.462;2022-08-16T12:42:33;4.00;2.67;0.00
65361;PMS5003;51961;54.960;73.462;2022-08-16T12:45:46;4.00;2.00;0.00
65361;PMS5003;51961;54.960;73.462;2022-08-16T12:48:48;6.00;5.00;0.00
65361;PMS5003;51961;54.960;73.462;2022-08-16T12:51:59;8.75;5.50;2.50
65361;PMS5003;51961;54.960;73.462;2022-08-16T12:55:02;7.00;5.75;2.00
65361;PMS5003;51961;54.960;73.462;2022-08-16T12:58:04;8.75;6.75;3.00
65361;PMS5003;51961;54.960;73.462;2022-08-16T13:01:07;9.00;9.00;4.75
65361;PMS5003;51961;54.960;73.462;2022-08-16T13:04:09;3.50;2.75;1.00
65361;PMS5003;51961;54.960;73.462;2022-08-16T13:07:12;1.00;1.00;0.00
65361;PMS5003;51961;54.960;73.462;2022-08-16T13:10:15;2.25;2.00;0.00
65361;PMS5003;51961;54.960;73.462;2022-08-16T13:13:19;3.00;3.00;0.00
65361;PMS5003;51961;54.960;73.462;2022-08-16T13:16:25;1.33;0.67;0.00
65361;PMS5003;51961;54.960;73.462;2022-08-16T13:19:34;1.00;0.00;0.00
65361;PMS5003;51961;54.960;73.462;2022-08-16T13:22:39;3.00;2.00;0.00
65361;PMS5003;51961;54.960;73.462;2022-08-16T13:25:42;4.00;3.00;0.00
65361;PMS5003;51961;54.960;73.462;2022-08-16T13:28:45;15.25;12.00;7.00
65361;PMS5003;51961;54.960;73.462;2022-08-16T13:31:54;17.75;15.00;7.00
65361;PMS5003;51961;54.960;73.462;2022-08-16T13:34:58;11.75;9.75;4.00
65361;PMS5003;51961;54.960;73.462;2022-08-16T13:38:01;4.75;3.00;1.00
65361;PMS5003;51961;54.960;73.462;2022-08-16T13:41:04;3.00;2.00;1.00
65361;PMS5003;51961;54.960;73.462;2022-08-16T13:44:08;2.00;2.00;1.00
65361;PMS5003;51961;54.960;73.462;2022-08-16T13:47:14;4.00;3.00;0.00
65361;PMS5003;51961;54.960;73.462;2022-08-16T13:50:17;3.00;2.00;0.00
65361;PMS5003;51961;54.960;73.462;2022-08-16T13:53:19;3.00;2.33;0.00
65361;PMS5003;51961;54.960;73.462;2022-08-16T13:56:22;3.00;1.00;0.00
65361;PMS5003;51961;54.960;73.462;2022-08-16T13:59:29;4.00;1.33;0.00
65361;PMS5003;51961;54.960;73.462;2022-08-16T14:02:31;6.00;5.00;0.00
65361;PMS5003;51961;54.960;73.462;2022-08-16T14:05:33;4.33;4.00;0.00
65361;PMS5003;51961;54.960;73.462;2022-08-16T14:08:38;6.50;5.00;0.75
65361;PMS5003;51961;54.960;73.462;2022-08-16T14:11:45;8.00;7.00;3.00
65361;PMS5003;51961;54.960;73.462;2022-08-16T14:14:48;9.00;7.00;2.00
65361;PMS5003;51961;54.960;73.462;2022-08-16T14:17:51;9.50;9.50;3.00
65361;PMS5003;51961;54.960;73.462;2022-08-16T14:21:03;7.00;5.25;2.00
65361;PMS5003;51961;54.960;73.462;2022-08-16T14:24:05;6.75;6.00;3.00
65361;PMS5003;51961;54.960;73.462;2022-08-16T14:27:06;7.00;5.00;1.00
65361;PMS5003;51961;54.960;73.462;2022-08-16T14:30:11;4.50;4.50;1.00
65361;PMS5003;51961;54.960;73.462;2022-08-16T14:33:14;6.00;5.00;2.00
65361;PMS5003;51961;54.960;73.462;2022-08-16T14:36:15;6.00;3.00;1.00
65361;PMS5003;51961;54.960;73.462;2022-08-16T14:39:19;4.00;3.00;0.00
65361;PMS5003;51961;54.960;73.462;2022-08-16T14:42:24;6.00;4.00;0.00
65361;PMS5003;51961;54.960;73.462;2022-08-16T14:45:26;5.00;4.00;0.75
65361;PMS5003;51961;54.960;73.462;2022-08-16T14:48:38;5.00;5.00;1.00
65361;PMS5003;51961;54.960;73.462;2022-08-16T14:51:40;5.00;4.00;1.00
65361;PMS5003;51961;54.960;73.462;2022-08-16T14:54:47;6.33;3.00;0.00
65361;PMS5003;51961;54.960;73.462;2022-08-16T14:57:50;5.33;4.00;0.00
65361;PMS5003;51961;54.960;73.462;2022-08-16T15:00:53;3.00;3.00;0.33
65361;PMS5003;51961;54.960;73.462;2022-08-16T15:03:59;3.00;1.25;0.00
65361;PMS5003;51961;54.960;73.462;2022-08-16T15:07:01;4.00;3.00;0.00
65361;PMS5003;51961;54.960;73.462;2022-08-16T15:10:04;3.00;2.00;0.00
65361;PMS5003;51961;54.960;73.462;2022-08-16T15:13:17;3.00;2.50;0.00
65361;PMS5003;51961;54.960;73.462;2022-08-16T15:16:20;3.00;2.00;1.00
65361;PMS5003;51961;54.960;73.462;2022-08-16T15:19:23;2.33;2.00;0.00
65361;PMS5003;51961;54.960;73.462;2022-08-16T15:22:36;2.25;2.00;0.00
65361;PMS5003;51961;54.960;73.462;2022-08-16T15:25:43;1.67;1.33;0.00
65361;PMS5003;51961;54.960;73.462;2022-08-16T15:28:48;3.00;0.25;0.00
65361;PMS5003;51961;54.960;73.462;2022-08-16T15:32:00;1.33;0.00;0.00
65361;PMS5003;51961;54.960;73.462;2022-08-16T15:35:07;2.25;1.00;0.00
65361;PMS5003;51961;54.960;73.462;2022-08-16T15:38:16;1.00;0.00;0.00
65361;PMS5003;51961;54.960;73.462;2022-08-16T15:44:41;0.00;0.00;0.00
65361;PMS5003;51961;54.960;73.462;2022-08-16T15:47:48;1.67;1.00;0.00
65361;PMS5003;51961;54.960;73.462;2022-08-16T15:50:56;0.25;0.00;0.00
65361;PMS5003;51961;54.960;73.462;2022-08-16T15:54:00;2.00;1.75;0.00
65361;PMS5003;51961;54.960;73.462;2022-08-16T15:57:14;2.33;1.00;0.00
65361;PMS5003;51961;54.960;73.462;2022-08-16T16:00:18;1.00;0.00;0.00
65361;PMS5003;51961;54.960;73.462;2022-08-16T16:03:31;2.00;1.00;0.00
65361;PMS5003;51961;54.960;73.462;2022-08-16T16:06:33;2.00;2.00;0.00
65361;PMS5003;51961;54.960;73.462;2022-08-16T16:09:36;2.00;2.00;0.00
65361;PMS5003;51961;54.960;73.462;2022-08-16T16:12:39;3.00;3.00;0.00
65361;PMS5003;51961;54.960;73.462;2022-08-16T16:15:45;1.67;1.00;0.00
65361;PMS5003;51961;54.960;73.462;2022-08-16T16:18:48;0.25;0.00;0.00
65361;PMS5003;51961;54.960;73.462;2022-08-16T16:21:51;1.00;1.00;0.00
65361;PMS5003;51961;54.960;73.462;2022-08-16T16:24:54;2.00;1.00;0.00
65361;PMS5003;51961;54.960;73.462;2022-08-16T16:27:57;1.00;1.00;0.00
65361;PMS5003;51961;54.960;73.462;2022-08-16T16:31:00;2.33;1.00;0.00
65361;PMS5003;51961;54.960;73.462;2022-08-16T16:34:02;3.75;2.00;0.00
65361;PMS5003;51961;54.960;73.462;2022-08-16T16:37:04;2.00;2.00;0.00
65361;PMS5003;51961;54.960;73.462;2022-08-16T16:40:08;1.00;1.00;0.00
65361;PMS5003;51961;54.960;73.462;2022-08-16T16:43:21;1.25;1.25;0.00
65361;PMS5003;51961;54.960;73.462;2022-08-16T16:46:24;1.00;1.00;0.00
65361;PMS5003;51961;54.960;73.462;2022-08-16T16:49:27;1.00;1.00;0.00
65361;PMS5003;51961;54.960;73.462;2022-08-16T16:52:29;2.00;1.00;0.00
65361;PMS5003;51961;54.960;73.462;2022-08-16T16:55:31;2.00;1.00;0.00
65361;PMS5003;51961;54.960;73.462;2022-08-16T16:58:35;2.00;1.00;0.00
65361;PMS5003;51961;54.960;73.462;2022-08-16T17:01:57;2.00;1.00;0.00
65361;PMS5003;51961;54.960;73.462;2022-08-16T17:05:00;3.00;2.00;0.00
65361;PMS5003;51961;54.960;73.462;2022-08-16T17:08:04;3.33;3.00;0.00
65361;PMS5003;51961;54.960;73.462;2022-08-16T17:11:08;1.00;1.00;0.00
65361;PMS5003;51961;54.960;73.462;2022-08-16T17:14:11;3.33;1.33;0.00
65361;PMS5003;51961;54.960;73.462;2022-08-16T17:17:13;4.00;2.75;0.00
65361;PMS5003;51961;54.960;73.462;2022-08-16T17:20:16;4.00;4.00;0.33
65361;PMS5003;51961;54.960;73.462;2022-08-16T17:23:23;5.00;4.00;2.00
65361;PMS5003;51961;54.960;73.462;2022-08-16T17:26:25;2.00;1.00;1.00
65361;PMS5003;51961;54.960;73.462;2022-08-16T17:29:37;4.00;3.00;1.00
65361;PMS5003;51961;54.960;73.462;2022-08-16T17:32:40;1.00;1.00;0.00
65361;PMS5003;51961;54.960;73.462;2022-08-16T17:35:52;5.00;3.00;0.25
65361;PMS5003;51961;54.960;73.462;2022-08-16T17:39:04;4.00;4.00;1.00
65361;PMS5003;51961;54.960;73.462;2022-08-16T17:42:10;5.67;5.00;0.00
65361;PMS5003;51961;54.960;73.462;2022-08-16T17:45:16;5.00;3.00;1.00
65361;PMS5003;51961;54.960;73.462;2022-08-16T17:48:18;7.00;4.00;2.00
65361;PMS5003;51961;54.960;73.462;2022-08-16T17:51:25;4.00;3.00;1.00
65361;PMS5003;51961;54.960;73.462;2022-08-16T17:54:27;7.00;4.00;1.33
65361;PMS5003;51961;54.960;73.462;2022-08-16T17:57:30;3.00;2.75;1.00
65361;PMS5003;51961;54.960;73.462;2022-08-16T18:00:39;0.00;0.00;0.00